Kezdőlap
METAR-TAF:

METAR-TAF

Repülőterek :

Meriden-Markham Municipal Airport

Meriden, Connecticut, Amerikai Egyesült Államok

földrajzi szélesség: 41-30-35N, földrajzi hosszúság: 072-49-40W, magasság: 31 m

Jelenlegi meteorológiai megfigyelések

A jelentés 32 perccel ezelõtt készült, 19:53 UTC
Nyugati szél 10 kt széllökések: 17 kt
Hőmérséklet 8°C
Páratartalom 21%
Légköri nyomás 1020 hPa
Látótávolság: 16.1 km
Derült ég

METAR: KMMK 221953Z AUTO 26010G17KT 10SM CLR 08/M13 A3013 RMK AO2 SLP203 T00781128

Idő: 15:25 (20:25 UTC)


TAF: hiányzik

Meteorológiai megfigyelések és előrejelzések több, mint 4000 repülőtéren (METAR és TAF jelentéseket).

A térképen piros és sárga pontok jelzik az elérhető meteorológiai állomásokat.

Mozgassa az egeret a pont fölött, hogy megjelenjen az állomás neve.

Azután kattintson az időjárási megfigyelések és előrejelzések megtekintéséhez.

A térkép megváltoztatása: kattintson a fekete keresztel jelölt zöld gombra ráközelítéshez, a vonallal jelölt zöld gombra távolításhoz, vagy a zöld nyilakra a szomszédos térképek eléréséhez.


METAR-TAF: